Time;durP1;ratioP1;P1;durP2;ratioP2;P2;SDS_P1;SDS_P2;PMS_P1;PMS_P2;Temp;Humidity;BMP_temperature;BMP_pressure;BME280_temperature;BME280_humidity;BME280_pressure;Samples;Min_cycle;Max_cycle;Signal;HPM_P1;HPM_P2
2021/12/03 00:00:53;;;;;;;6.10;1.70;;;;;;;-2.15;93.62;100084.27;101910;1324;71825;-80
2021/12/03 00:03:20;;;;;;;6.40;2.00;;;;;;;-2.09;93.23;100086.60;102131;1324;71407;-79
2021/12/03 00:05:48;;;;;;;9.10;2.00;;;;;;;-2.03;92.99;100089.64;101614;1324;72952;-77
2021/12/03 00:08:15;;;;;;;3.60;1.60;;;;;;;-1.98;92.60;100093.46;101498;1321;60624;-77
2021/12/03 00:10:44;;;;;;;3.40;1.90;;;;;;;-1.95;92.25;100088.36;101386;1324;61131;-77
2021/12/03 00:13:10;;;;;;;7.00;2.20;;;;;;;-1.93;91.95;100083.23;101259;1324;75371;-77
2021/12/03 00:15:37;;;;;;;3.90;1.20;;;;;;;-1.86;91.78;100079.75;101604;1324;71402;-78
2021/12/03 00:18:04;;;;;;;7.10;2.40;;;;;;;-1.83;91.40;100078.66;101924;1324;60530;-78
2021/12/03 00:20:35;;;;;;;7.00;2.60;;;;;;;-1.81;91.21;100077.67;101419;1323;60515;-76
2021/12/03 00:23:04;;;;;;;4.70;2.00;;;;;;;-1.82;90.98;100074.27;101420;1324;61805;-77
2021/12/03 00:25:32;;;;;;;4.10;1.80;;;;;;;-1.82;90.94;100073.06;101450;1324;75142;-77
2021/12/03 00:27:59;;;;;;;6.10;2.50;;;;;;;-1.83;91.05;100067.95;101411;1324;72404;-77
2021/12/03 00:30:31;;;;;;;6.30;2.70;;;;;;;-1.85;91.16;100069.95;101234;1322;72915;-78
2021/12/03 00:32:58;;;;;;;7.30;3.00;;;;;;;-1.85;91.19;100070.34;101270;1324;61250;-78
2021/12/03 00:35:25;;;;;;;5.70;3.40;;;;;;;-1.87;91.47;100070.29;101347;1322;61584;-78
2021/12/03 00:37:52;;;;;;;7.20;3.90;;;;;;;-1.89;91.75;100076.14;101522;1323;73069;-78
2021/12/03 00:40:27;;;;;;;9.40;4.20;;;;;;;-1.90;92.03;100071.02;101657;1325;72641;-76
2021/12/03 00:42:54;;;;;;;8.50;3.20;;;;;;;-1.90;92.23;100069.83;101481;1324;73982;-78
2021/12/03 00:45:21;;;;;;;3.70;2.00;;;;;;;-1.91;92.41;100067.98;101529;1324;61544;-80
2021/12/03 00:47:48;;;;;;;11.10;4.20;;;;;;;-1.91;92.59;100065.89;101664;1322;60448;-78
2021/12/03 00:50:19;;;;;;;15.80;5.40;;;;;;;-1.90;92.68;100066.71;101464;1324;74261;-78
2021/12/03 00:52:46;;;;;;;7.30;4.90;;;;;;;-1.89;92.69;100064.73;101543;1323;71581;-79
2021/12/03 00:55:14;;;;;;;7.00;4.30;;;;;;;-1.87;92.76;100067.17;101944;1324;73017;-77
2021/12/03 00:57:40;;;;;;;12.80;4.20;;;;;;;-1.86;92.64;100067.98;101646;1324;61356;-78
2021/12/03 01:00:13;;;;;;;10.50;5.50;;;;;;;-1.85;92.54;100069.77;101347;1324;61761;-75
2021/12/03 01:02:39;;;;;;;9.30;4.90;;;;;;;-1.83;92.59;100065.30;101466;1324;73465;-76
2021/12/03 01:05:07;;;;;;;10.50;4.60;;;;;;;-1.81;92.50;100071.27;101469;1324;71469;-78
2021/12/03 01:07:34;;;;;;;9.90;5.00;;;;;;;-1.81;92.49;100065.34;101369;1324;72997;-76
2021/12/03 01:10:01;;;;;;;11.60;5.60;;;;;;;-1.81;92.52;100069.00;101271;1324;60559;-78
2021/12/03 01:12:28;;;;;;;11.00;5.30;;;;;;;-1.83;92.77;100075.52;101284;1324;61825;-79
2021/12/03 01:14:55;;;;;;;11.80;5.60;;;;;;;-1.83;93.03;100082.67;101365;1323;74182;-77
2021/12/03 01:17:22;;;;;;;7.50;3.20;;;;;;;-1.84;93.23;100085.15;101370;1323;72654;-76
2021/12/03 01:19:49;;;;;;;13.20;5.80;;;;;;;-1.86;93.36;100083.92;101537;1324;73944;-76
2021/12/03 01:22:17;;;;;;;15.00;7.70;;;;;;;-1.87;93.43;100087.48;101465;1324;61249;-75
2021/12/03 01:24:44;;;;;;;15.10;6.60;;;;;;;-1.88;93.55;100092.75;101336;1324;60759;-76
2021/12/03 01:27:11;;;;;;;14.30;7.20;;;;;;;-1.90;93.74;100091.83;101438;1320;74123;-76
2021/12/03 01:29:37;;;;;;;17.50;7.60;;;;;;;-1.91;94.03;100094.84;101330;1324;71383;-78
2021/12/03 01:32:04;;;;;;;10.70;5.00;;;;;;;-1.91;93.98;100098.67;101335;1323;73038;-78
2021/12/03 01:34:31;;;;;;;19.70;7.80;;;;;;;-1.93;94.27;100097.57;101472;1324;60433;-77
2021/12/03 01:36:57;;;;;;;16.10;7.70;;;;;;;-1.92;94.86;100097.49;101424;1324;60697;-78
2021/12/03 01:39:24;;;;;;;21.40;8.30;;;;;;;-1.88;95.22;100102.41;101456;1323;60541;-79
2021/12/03 01:41:51;;;;;;;18.60;7.00;;;;;;;-1.84;95.25;100102.98;101992;1324;72823;-77
2021/12/03 01:44:17;;;;;;;12.10;6.40;;;;;;;-1.79;95.26;100101.21;101529;1324;60442;-77
2021/12/03 01:46:44;;;;;;;11.90;6.60;;;;;;;-1.75;94.99;100097.15;101420;1327;60471;-77
2021/12/03 01:49:13;;;;;;;14.30;6.70;;;;;;;-1.72;94.76;100098.00;101576;1323;60603;-75
2021/12/03 01:51:42;;;;;;;13.50;6.80;;;;;;;-1.71;94.61;100099.45;101442;1324;74183;-76
2021/12/03 01:54:08;;;;;;;13.80;5.70;;;;;;;-1.68;94.70;100098.58;101486;1323;71383;-75
2021/12/03 01:56:37;;;;;;;14.40;5.90;;;;;;;-1.66;94.77;100097.73;101357;1324;72651;-77
2021/12/03 01:59:04;;;;;;;15.40;6.90;;;;;;;-1.67;94.33;100093.95;101500;1324;60611;-77
2021/12/03 02:01:30;;;;;;;16.60;7.00;;;;;;;-1.68;94.37;100098.55;101464;1324;60794;-76
2021/12/03 02:04:00;;;;;;;18.50;6.60;;;;;;;-1.68;94.49;100098.21;101578;1321;74149;-78
2021/12/03 02:06:28;;;;;;;14.20;6.00;;;;;;;-1.69;94.48;100101.38;101623;1324;71220;-77
2021/12/03 02:08:56;;;;;;;19.90;8.00;;;;;;;-1.64;94.52;100107.14;101604;1324;72831;-78
2021/12/03 02:11:26;;;;;;;20.80;7.30;;;;;;;-1.61;94.36;100108.50;101570;1324;61483;-80
2021/12/03 02:13:53;;;;;;;13.40;4.80;;;;;;;-1.59;94.38;100117.33;102190;1324;60422;-77
2021/12/03 02:16:21;;;;;;;12.60;5.50;;;;;;;-1.55;94.33;100118.27;101524;1324;74121;-75
2021/12/03 02:18:49;;;;;;;16.30;7.00;;;;;;;-1.49;94.41;100119.59;101517;1324;72507;-80
2021/12/03 02:21:17;;;;;;;11.70;5.30;;;;;;;-1.44;94.18;100121.27;101907;1324;72885;-76
2021/12/03 02:23:45;;;;;;;14.70;5.40;;;;;;;-1.40;93.74;100119.44;101485;1323;61514;-75
2021/12/03 02:26:14;;;;;;;14.30;6.50;;;;;;;-1.40;93.67;100119.45;101669;1323;60539;-75
2021/12/03 02:28:45;;;;;;;13.40;6.90;;;;;;;-1.42;93.44;100120.27;101565;1326;74437;-79
2021/12/03 02:31:15;;;;;;;16.90;7.60;;;;;;;-1.45;93.54;100117.69;101511;1324;71540;-76
2021/12/03 02:33:44;;;;;;;11.20;5.70;;;;;;;-1.47;93.64;100125.99;101644;1324;74429;-77
2021/12/03 02:36:12;;;;;;;17.10;6.50;;;;;;;-1.50;93.53;100128.96;101629;1324;61228;-78
2021/12/03 02:38:39;;;;;;;13.30;4.60;;;;;;;-1.52;93.90;100131.41;101394;1324;60639;-75
2021/12/03 02:41:05;;;;;;;8.80;4.00;;;;;;;-1.54;93.97;100131.06;101445;1324;75270;-78
2021/12/03 02:43:32;;;;;;;13.80;5.80;;;;;;;-1.57;94.29;100133.33;101833;1324;72442;-78
2021/12/03 02:45:59;;;;;;;15.70;6.70;;;;;;;-1.57;94.28;100130.89;102137;1324;71799;-81
2021/12/03 02:48:26;;;;;;;17.70;7.00;;;;;;;-1.57;94.34;100131.45;101978;1324;62832;-80
2021/12/03 02:50:55;;;;;;;16.60;6.10;;;;;;;-1.57;94.53;100127.45;101916;1324;61666;-77
2021/12/03 02:53:22;;;;;;;21.10;6.10;;;;;;;-1.57;94.45;100121.00;101470;1324;74331;-76
2021/12/03 02:55:50;;;;;;;14.30;5.70;;;;;;;-1.55;94.59;100120.04;101516;1324;72681;-77
2021/12/03 02:58:18;;;;;;;10.50;4.90;;;;;;;-1.55;94.66;100119.83;101408;1323;72978;-80
2021/12/03 03:00:47;;;;;;;13.80;5.50;;;;;;;-1.55;94.62;100122.45;102040;1323;60634;-76
2021/12/03 03:03:14;;;;;;;14.50;6.90;;;;;;;-1.55;94.57;100124.50;101510;1324;60621;-78
2021/12/03 03:05:46;;;;;;;17.00;7.50;;;;;;;-1.56;94.70;100124.95;101449;1324;73890;-77
2021/12/03 03:08:13;;;;;;;19.80;7.90;;;;;;;-1.57;94.89;100127.05;101308;1324;72348;-80
2021/12/03 03:10:42;;;;;;;12.70;6.40;;;;;;;-1.54;95.08;100135.20;101953;1322;60640;-81
2021/12/03 03:13:08;;;;;;;24.80;7.40;;;;;;;-1.51;94.91;100132.88;101716;1324;61013;-77
2021/12/03 03:15:38;;;;;;;13.70;5.80;;;;;;;-1.49;94.89;100133.78;101551;1324;60630;-76
2021/12/03 03:18:21;;;;;;;18.60;6.90;;;;;;;-1.47;94.88;100135.38;101382;1323;75510;-76
2021/12/03 03:20:50;;;;;;;10.70;4.60;;;;;;;-1.46;94.77;100135.30;101543;1324;70170;-79
2021/12/03 03:23:17;;;;;;;15.90;6.70;;;;;;;-1.46;94.52;100130.42;101817;1324;73975;-78
2021/12/03 03:25:45;;;;;;;11.80;5.90;;;;;;;-1.47;94.40;100133.62;101953;1324;62538;-77
2021/12/03 03:28:13;;;;;;;16.10;7.00;;;;;;;-1.49;94.17;100128.25;101388;1324;60739;-76
2021/12/03 03:30:44;;;;;;;17.10;5.80;;;;;;;-1.52;94.50;100129.47;101493;1324;74177;-77
2021/12/03 03:33:15;;;;;;;13.90;5.70;;;;;;;-1.53;94.72;100131.47;101462;1323;72825;-78
2021/12/03 03:35:42;;;;;;;16.80;5.80;;;;;;;-1.53;94.82;100127.11;101472;1324;72109;-76
2021/12/03 03:38:09;;;;;;;12.30;4.60;;;;;;;-1.54;94.63;100131.92;101228;1324;61913;-76
2021/12/03 03:40:38;;;;;;;15.50;6.90;;;;;;;-1.55;94.79;100136.98;101449;1323;62523;-76
2021/12/03 03:43:06;;;;;;;14.00;6.30;;;;;;;-1.55;94.79;100137.70;101448;1324;74288;-75
2021/12/03 03:45:34;;;;;;;14.40;6.40;;;;;;;-1.57;94.90;100141.83;101408;1323;71432;-77
2021/12/03 03:48:01;;;;;;;17.80;7.50;;;;;;;-1.58;94.91;100137.23;101386;1324;74561;-78
2021/12/03 03:50:28;;;;;;;16.70;7.30;;;;;;;-1.60;94.89;100135.16;101392;1324;60665;-77
2021/12/03 03:52:56;;;;;;;16.60;7.00;;;;;;;-1.64;95.10;100138.16;101646;1322;60570;-77
2021/12/03 03:55:23;;;;;;;19.10;6.70;;;;;;;-1.69;95.08;100134.15;101499;1323;73104;-80
2021/12/03 03:57:53;;;;;;;17.50;8.30;;;;;;;-1.72;95.17;100139.89;101762;1327;72501;-80
2021/12/03 04:00:25;;;;;;;19.60;7.70;;;;;;;-1.73;95.84;100142.08;101842;1324;72935;-80
2021/12/03 04:02:52;;;;;;;18.30;9.10;;;;;;;-1.70;96.41;100135.45;101954;1324;61287;-81
2021/12/03 04:05:18;;;;;;;24.40;7.90;;;;;;;-1.66;96.29;100136.58;101693;1324;60717;-80
2021/12/03 04:07:45;;;;;;;16.70;7.70;;;;;;;-1.63;96.29;100133.79;101899;1324;75209;-78
2021/12/03 04:10:12;;;;;;;18.50;7.70;;;;;;;-1.58;96.38;100132.90;101511;1324;71483;-75
2021/12/03 04:12:39;;;;;;;20.90;7.40;;;;;;;-1.55;96.44;100126.80;101402;1323;73979;-76
2021/12/03 04:15:08;;;;;;;17.60;8.00;;;;;;;-1.54;96.32;100124.80;101273;1324;60611;-79
2021/12/03 04:17:35;;;;;;;16.90;7.30;;;;;;;-1.53;96.27;100124.90;101787;1324;60517;-77
2021/12/03 04:20:04;;;;;;;24.80;9.80;;;;;;;-1.54;96.18;100123.19;101490;1323;74134;-77
2021/12/03 04:22:32;;;;;;;25.70;9.00;;;;;;;-1.54;96.15;100123.40;101511;1324;73601;-77
2021/12/03 04:25:05;;;;;;;23.50;9.30;;;;;;;-1.55;96.55;100127.95;101475;1312;75648;-78
2021/12/03 04:27:32;;;;;;;18.50;8.70;;;;;;;-1.54;96.65;100132.61;101568;1324;61228;-78
2021/12/03 04:29:59;;;;;;;21.70;9.10;;;;;;;-1.55;96.68;100131.98;101751;1322;60467;-77
2021/12/03 04:32:25;;;;;;;16.50;7.70;;;;;;;-1.56;96.89;100129.04;101561;1324;60665;-78
2021/12/03 04:34:53;;;;;;;23.30;9.40;;;;;;;-1.57;96.79;100131.41;101656;1324;71633;-77
2021/12/03 04:37:20;;;;;;;23.90;10.40;;;;;;;-1.57;97.33;100133.30;101659;1323;74117;-77
2021/12/03 04:39:47;;;;;;;22.10;9.60;;;;;;;-1.56;97.52;100130.27;101648;1323;61988;-80
2021/12/03 04:42:14;;;;;;;28.80;12.30;;;;;;;-1.53;97.75;100126.08;101805;1324;60442;-77
2021/12/03 04:44:40;;;;;;;23.40;10.50;;;;;;;-1.47;97.95;100130.86;101707;1321;75162;-75
2021/12/03 04:47:07;;;;;;;22.90;9.30;;;;;;;-1.43;97.65;100126.77;101745;1321;63797;-73
2021/12/03 04:49:34;;;;;;;22.20;9.40;;;;;;;-1.38;97.68;100124.68;101371;1324;74280;-75
2021/12/03 04:52:00;;;;;;;24.00;10.80;;;;;;;-1.36;97.32;100126.42;101550;1322;61489;-77
2021/12/03 04:54:27;;;;;;;14.20;6.80;;;;;;;-1.34;97.29;100128.55;101578;1324;61594;-77
2021/12/03 04:56:55;;;;;;;15.70;7.40;;;;;;;-1.34;97.37;100130.95;101631;1322;60594;-78
2021/12/03 04:59:22;;;;;;;12.80;5.70;;;;;;;-1.31;97.45;100134.36;101690;1324;71662;-79
2021/12/03 05:01:49;;;;;;;15.10;7.70;;;;;;;-1.28;97.01;100133.48;101656;1322;72925;-77
2021/12/03 05:04:16;;;;;;;24.80;11.30;;;;;;;-1.27;96.91;100134.06;102087;1324;63222;-75
2021/12/03 05:09:27;;;;;;;20.00;9.20;;;;;;;-1.24;96.93;100136.79;101804;1326;75232;-76
2021/12/03 05:11:54;;;;;;;21.30;9.50;;;;;;;-1.22;97.04;100138.93;101675;1322;60566;-76
2021/12/03 05:14:20;;;;;;;14.10;7.50;;;;;;;-1.21;97.01;100138.52;101816;1323;60521;-76
2021/12/03 05:16:48;;;;;;;22.40;9.80;;;;;;;-1.20;96.95;100135.52;101445;1323;60492;-75
2021/12/03 05:19:16;;;;;;;14.00;6.20;;;;;;;-1.18;96.96;100133.60;101538;1323;61760;-75
2021/12/03 05:21:44;;;;;;;19.70;9.60;;;;;;;-1.14;96.91;100138.70;101682;1324;75117;-80
2021/12/03 05:24:12;;;;;;;25.00;10.60;;;;;;;-1.11;97.05;100132.02;102187;1325;71436;-77
2021/12/03 05:26:39;;;;;;;14.30;7.40;;;;;;;-1.06;96.82;100132.55;102116;1325;74184;-78
2021/12/03 05:29:08;;;;;;;24.40;11.50;;;;;;;-1.03;96.70;100129.73;102108;1318;60521;-77
2021/12/03 05:31:36;;;;;;;18.60;7.90;;;;;;;-1.00;96.57;100131.08;102326;1324;60481;-77
2021/12/03 05:34:24;;;;;;;23.50;10.00;;;;;;;-0.97;96.43;100129.83;102140;1324;76414;-79
2021/12/03 05:36:51;;;;;;;23.80;12.50;;;;;;;-0.95;96.43;100124.60;101988;1323;72463;-79
2021/12/03 05:39:17;;;;;;;25.80;12.20;;;;;;;-0.93;96.38;100132.58;102089;1321;72904;-75
2021/12/03 05:41:44;;;;;;;22.30;9.40;;;;;;;-0.90;96.23;100131.86;101506;1323;60512;-76
2021/12/03 05:44:13;;;;;;;18.40;9.40;;;;;;;-0.88;96.12;100137.09;101730;1321;60601;-78
2021/12/03 05:46:40;;;;;;;24.30;10.10;;;;;;;-0.86;95.87;100139.16;101766;1323;73856;-78
2021/12/03 05:49:07;;;;;;;27.70;11.60;;;;;;;-0.84;95.78;100142.31;101694;1323;71380;-74
2021/12/03 05:51:33;;;;;;;21.30;10.00;;;;;;;-0.81;95.84;100138.48;102061;1316;72923;-79
2021/12/03 05:54:00;;;;;;;20.00;10.20;;;;;;;-0.79;95.71;100139.55;101906;1319;60524;-80
2021/12/03 05:56:27;;;;;;;15.70;8.10;;;;;;;-0.76;95.82;100146.85;102345;1321;60606;-79
2021/12/03 05:58:58;;;;;;;21.80;10.50;;;;;;;-0.74;95.49;100145.58;101931;1329;74201;-76
2021/12/03 06:01:25;;;;;;;22.10;10.10;;;;;;;-0.71;95.56;100148.52;101468;1322;72450;-79
2021/12/03 06:03:51;;;;;;;20.60;9.00;;;;;;;-0.69;95.45;100150.40;102303;1322;73189;-79
2021/12/03 06:06:18;;;;;;;15.60;8.20;;;;;;;-0.67;95.46;100156.68;101505;1323;61166;-79
2021/12/03 06:08:45;;;;;;;23.40;10.10;;;;;;;-0.66;95.46;100155.92;102352;1323;60509;-77
2021/12/03 06:11:12;;;;;;;17.60;9.30;;;;;;;-0.65;95.48;100157.78;101446;1328;75108;-76
2021/12/03 06:13:39;;;;;;;23.20;9.80;;;;;;;-0.64;95.50;100162.19;101718;1323;72410;-77
2021/12/03 06:16:11;;;;;;;25.00;11.20;;;;;;;-0.62;95.64;100167.23;101801;1318;72962;-76
2021/12/03 06:18:39;;;;;;;27.70;11.10;;;;;;;-0.59;95.75;100172.11;101952;1322;60544;-77
2021/12/03 06:21:09;;;;;;;24.60;12.00;;;;;;;-0.57;95.76;100167.43;101368;1327;62756;-76
2021/12/03 06:23:37;;;;;;;28.20;11.10;;;;;;;-0.53;95.75;100167.27;101541;1320;75278;-77
2021/12/03 06:26:05;;;;;;;31.20;12.70;;;;;;;-0.51;95.74;100162.42;101593;1326;71293;-75
2021/12/03 06:28:34;;;;;;;21.00;9.40;;;;;;;-0.49;95.76;100162.14;101570;1324;73960;-78
2021/12/03 06:31:00;;;;;;;20.10;10.20;;;;;;;-0.49;95.73;100163.85;101591;1324;60553;-76
2021/12/03 06:33:27;;;;;;;18.80;9.70;;;;;;;-0.49;95.82;100165.77;101506;1322;60617;-74
2021/12/03 06:35:53;;;;;;;19.00;8.70;;;;;;;-0.48;95.88;100167.22;101721;1326;73134;-76
2021/12/03 06:38:21;;;;;;;23.30;10.70;;;;;;;-0.44;95.94;100168.65;101591;1323;71163;-74
2021/12/03 06:40:49;;;;;;;25.50;10.50;;;;;;;-0.40;95.95;100166.31;101459;1324;73977;-78
2021/12/03 06:43:17;;;;;;;15.70;7.80;;;;;;;-0.38;95.71;100159.23;101360;1324;60526;-77
2021/12/03 06:45:45;;;;;;;24.30;10.90;;;;;;;-0.38;95.74;100163.39;101506;1327;62140;-75
2021/12/03 06:48:12;;;;;;;20.80;9.80;;;;;;;-0.38;95.60;100168.77;101463;1325;74265;-77
2021/12/03 06:50:38;;;;;;;20.50;10.50;;;;;;;-0.38;95.39;100171.75;101548;1328;72511;-76
2021/12/03 06:53:12;;;;;;;16.30;8.70;;;;;;;-0.41;95.69;100180.23;101448;1325;74019;-76
2021/12/03 06:55:51;;;;;;;25.60;9.30;;;;;;;-0.42;95.67;100174.23;101507;1323;62459;-76
2021/12/03 06:58:20;;;;;;;22.90;10.30;;;;;;;-0.42;96.00;100176.46;101358;1328;60643;-75
2021/12/03 07:00:50;;;;;;;28.10;12.20;;;;;;;-0.43;95.86;100173.44;101305;1324;74334;-74
2021/12/03 07:03:17;;;;;;;17.50;7.90;;;;;;;-0.44;96.28;100178.20;101370;1327;71457;-75
2021/12/03 07:05:44;;;;;;;23.90;9.80;;;;;;;-0.44;96.16;100172.98;101441;1324;72801;-77
2021/12/03 07:08:11;;;;;;;25.10;10.80;;;;;;;-0.43;96.45;100170.48;101402;1323;61446;-77
2021/12/03 07:10:37;;;;;;;15.90;7.30;;;;;;;-0.42;96.45;100172.99;101152;1330;60669;-75
2021/12/03 07:13:05;;;;;;;15.60;8.00;;;;;;;-0.39;96.50;100174.06;101328;1325;74252;-78
2021/12/03 07:15:31;;;;;;;30.80;12.20;;;;;;;-0.38;96.62;100169.98;101570;1322;71548;-79
2021/12/03 07:17:58;;;;;;;32.70;12.80;;;;;;;-0.36;96.50;100169.46;101413;1323;74309;-75
2021/12/03 07:20:26;;;;;;;24.60;10.60;;;;;;;-0.32;96.57;100167.30;101379;1323;60537;-75
2021/12/03 07:22:54;;;;;;;26.60;12.50;;;;;;;-0.31;96.50;100164.19;101641;1323;60775;-76
2021/12/03 07:25:22;;;;;;;22.60;11.40;;;;;;;-0.29;96.52;100162.67;101555;1322;74487;-74
2021/12/03 07:27:49;;;;;;;29.50;11.90;;;;;;;-0.25;96.52;100169.80;101208;1328;71531;-74
2021/12/03 07:30:18;;;;;;;17.30;8.00;;;;;;;-0.20;96.33;100169.59;101567;1323;72385;-76
2021/12/03 07:32:46;;;;;;;18.30;9.60;;;;;;;-0.15;96.20;100170.13;101546;1323;61413;-74
2021/12/03 07:35:20;;;;;;;24.20;10.20;;;;;;;-0.10;96.19;100174.64;101240;1326;61819;-76
2021/12/03 07:37:47;;;;;;;28.80;12.00;;;;;;;-0.07;96.00;100179.52;101447;1325;74324;-75
2021/12/03 07:40:14;;;;;;;24.00;11.00;;;;;;;-0.02;96.05;100180.17;101343;1325;72421;-76
2021/12/03 07:42:42;;;;;;;21.00;10.10;;;;;;;0.06;95.92;100179.98;101150;1326;219786;-74
2021/12/03 07:45:12;;;;;;;27.30;11.20;;;;;;;0.11;95.65;100183.90;101358;1324;62435;-75
2021/12/03 07:47:39;;;;;;;23.20;8.90;;;;;;;0.16;95.44;100186.25;101377;1323;62008;-76
2021/12/03 07:50:07;;;;;;;29.60;13.00;;;;;;;0.20;95.33;100191.54;101532;1324;74207;-74
2021/12/03 07:52:34;;;;;;;21.60;9.30;;;;;;;0.24;95.32;100194.23;101487;1324;72480;-74
2021/12/03 07:55:01;;;;;;;27.00;12.10;;;;;;;0.29;95.06;100192.44;101616;1323;73070;-75
2021/12/03 07:57:28;;;;;;;24.00;9.50;;;;;;;0.34;94.91;100187.98;101557;1328;61557;-77
2021/12/03 07:59:55;;;;;;;21.20;10.50;;;;;;;0.39;94.80;100189.88;101533;1322;60559;-77
2021/12/03 08:02:23;;;;;;;23.30;9.80;;;;;;;0.43;94.70;100192.69;101499;1323;77568;-77
2021/12/03 08:04:50;;;;;;;25.10;11.20;;;;;;;0.46;94.53;100190.55;101470;1325;71392;-75
2021/12/03 08:07:17;;;;;;;23.80;9.10;;;;;;;0.49;94.27;100194.83;101340;1326;73033;-75
2021/12/03 08:09:44;;;;;;;21.70;9.60;;;;;;;0.53;94.20;100195.94;101439;1323;60999;-76
2021/12/03 08:12:11;;;;;;;20.90;8.00;;;;;;;0.56;94.08;100192.51;101463;1328;60430;-74
2021/12/03 08:14:38;;;;;;;20.70;8.80;;;;;;;0.60;93.87;100195.38;101437;1323;74293;-75
2021/12/03 08:17:05;;;;;;;23.20;8.90;;;;;;;0.62;93.49;100193.42;101485;1325;61650;-75
2021/12/03 08:19:31;;;;;;;22.40;9.00;;;;;;;0.66;93.41;100184.30;101397;1323;72996;-77
2021/12/03 08:21:58;;;;;;;19.60;8.40;;;;;;;0.68;92.98;100180.27;101382;1330;61558;-74
2021/12/03 08:24:24;;;;;;;15.10;7.00;;;;;;;0.75;92.60;100182.46;101159;1326;61675;-74
2021/12/03 08:26:51;;;;;;;17.60;7.30;;;;;;;0.78;92.57;100180.80;101335;1323;60540;-74
2021/12/03 08:29:18;;;;;;;14.80;7.20;;;;;;;0.80;92.20;100185.23;101193;1322;71525;-77
2021/12/03 08:31:45;;;;;;;21.20;8.40;;;;;;;0.83;92.19;100183.95;101300;1325;60531;-75
2021/12/03 08:34:12;;;;;;;23.00;9.80;;;;;;;0.85;92.07;100180.63;101396;1324;61302;-76
2021/12/03 08:36:38;;;;;;;12.50;6.10;;;;;;;0.87;92.07;100184.83;101337;1324;60563;-76
2021/12/03 08:39:05;;;;;;;56.70;21.20;;;;;;;0.90;91.92;100180.96;101302;1324;60499;-75
2021/12/03 08:41:33;;;;;;;107.30;26.90;;;;;;;0.91;91.79;100188.12;101358;1323;72589;-77
2021/12/03 08:44:02;;;;;;;118.70;31.00;;;;;;;0.92;91.87;100187.58;101521;1329;73990;-77
2021/12/03 08:46:35;;;;;;;56.20;14.80;;;;;;;0.94;91.89;100183.25;101750;1323;62462;-76
2021/12/03 08:49:51;;;;;;;74.90;21.10;;;;;;;0.95;91.86;100194.14;101498;1326;61266;-78
2021/12/03 08:52:27;;;;;;;75.80;21.90;;;;;;;0.96;91.76;100188.98;101527;1322;75217;-78
2021/12/03 08:54:56;;;;;;;172.70;48.80;;;;;;;0.97;91.77;100193.04;101442;1328;71424;-80
2021/12/03 08:57:26;;;;;;;78.40;24.80;;;;;;;0.97;91.63;100192.88;101394;1322;73137;-76
2021/12/03 08:59:56;;;;;;;90.70;29.40;;;;;;;1.00;91.60;100199.98;101452;1324;60531;-76
2021/12/03 09:02:23;;;;;;;99.50;32.20;;;;;;;1.01;91.32;100204.23;101673;1324;60613;-78
2021/12/03 09:04:50;;;;;;;178.00;53.70;;;;;;;1.04;91.14;100217.05;101471;1324;75235;-78
2021/12/03 09:07:17;;;;;;;174.60;54.60;;;;;;;1.08;90.99;100207.66;101676;1324;71207;-77
2021/12/03 09:09:44;;;;;;;109.50;35.90;;;;;;;1.11;90.79;100207.08;101348;1325;72802;-77
2021/12/03 09:12:11;;;;;;;96.90;34.90;;;;;;;1.13;90.47;100201.71;101474;1323;61318;-76
2021/12/03 09:17:21;;;;;;;90.20;30.20;;;;;;;1.19;90.06;100209.67;101481;1321;73801;-75
2021/12/03 09:22:42;;;;;;;53.80;20.40;;;;;;;1.27;89.34;100206.98;101298;1326;72781;-75
2021/12/03 09:25:14;;;;;;;51.20;19.70;;;;;;;1.31;89.00;100193.21;101359;1324;60721;-77
2021/12/03 09:27:41;;;;;;;74.80;27.00;;;;;;;1.33;88.84;100199.04;101470;1324;60481;-75
2021/12/03 09:30:10;;;;;;;119.40;46.00;;;;;;;1.35;88.88;100181.94;101287;1325;74277;-76
2021/12/03 09:32:36;;;;;;;101.40;44.80;;;;;;;1.36;88.69;100170.19;101329;1328;72563;-78
2021/12/03 09:35:09;;;;;;;78.20;30.00;;;;;;;1.37;88.38;100180.91;101262;1324;73534;-77
2021/12/03 09:37:36;;;;;;;32.40;14.30;;;;;;;1.38;88.13;100175.20;101389;1325;60555;-77
2021/12/03 09:40:08;;;;;;;103.40;48.00;;;;;;;1.40;88.32;100173.86;101361;1323;61259;-75
2021/12/03 09:42:38;;;;;;;36.60;15.40;;;;;;;1.43;88.09;100176.85;101443;1324;74181;-77
2021/12/03 09:45:08;;;;;;;19.90;10.80;;;;;;;1.50;87.57;100178.27;101444;1324;71437;-77
2021/12/03 09:47:34;;;;;;;15.90;7.10;;;;;;;1.55;87.25;100176.89;101476;1324;73036;-79
2021/12/03 09:50:05;;;;;;;15.10;7.30;;;;;;;1.63;86.84;100174.89;101682;1324;61191;-77
2021/12/03 09:52:40;;;;;;;18.40;8.20;;;;;;;1.72;86.76;100180.42;101488;1323;60687;-76
2021/12/03 09:55:10;;;;;;;18.80;7.80;;;;;;;1.81;86.39;100166.55;101345;1323;75054;-75
2021/12/03 09:57:45;;;;;;;15.00;7.90;;;;;;;1.89;86.15;100167.14;101291;1328;70641;-73
2021/12/03 10:15:28;;;;;;;21.40;9.90;;;;;;;2.28;84.51;100132.27;101570;1324;61068;-74
2021/12/03 10:29:33;;;;;;;19.30;8.70;;;;;;;2.55;83.21;100114.52;101521;1324;60520;-74
2021/12/03 10:49:21;;;;;;;12.20;6.00;;;;;;;2.78;80.82;100086.30;101586;1323;74284;-78
2021/12/03 10:52:09;;;;;;;15.30;6.60;;;;;;;2.80;80.38;100086.28;101620;1322;72550;-75
2021/12/03 11:33:47;;;;;;;14.40;5.90;;;;;;;2.39;82.66;100057.86;101155;1327;73423;-78
2021/12/03 11:36:42;;;;;;;15.10;6.40;;;;;;;2.41;82.79;100054.36;101389;1327;72971;-74
2021/12/03 11:39:37;;;;;;;14.80;5.90;;;;;;;2.42;82.88;100060.23;101357;1328;60536;-76
2021/12/03 11:57:35;;;;;;;13.40;6.40;;;;;;;2.36;83.67;100040.11;101340;1324;61812;-75
2021/12/03 11:59:54;;;;;;;13.00;6.30;;;;;;;2.35;83.54;100037.58;101253;1324;75227;-76
2021/12/03 12:05:58;;;;;;;12.00;5.30;;;;;;;2.30;84.05;100036.34;101264;1324;72920;-74
2021/12/03 12:44:46;;;;;;;15.40;5.70;;;;;;;2.90;80.67;99983.89;101130;1324;71541;-74
2021/12/03 13:02:36;;;;;;;16.20;4.60;;;;;;;2.69;80.51;99967.33;100823;1327;73074;-75
2021/12/03 13:05:47;;;;;;;8.70;4.10;;;;;;;2.72;79.96;99960.42;101072;1324;61536;-75
2021/12/03 13:21:41;;;;;;;12.00;5.00;;;;;;;2.79;79.46;99944.07;101276;1324;61954;-77
2021/12/03 13:27:33;;;;;;;6.20;2.90;;;;;;;2.86;78.14;99945.34;101159;1326;72798;-76
2021/12/03 13:36:32;;;;;;;5.90;2.40;;;;;;;2.98;76.51;99926.41;101266;1324;60609;-75
2021/12/03 14:09:13;;;;;;;5.80;2.30;;;;;;;2.66;76.22;99873.14;101085;1324;71435;-75
2021/12/03 14:25:18;;;;;;;5.30;2.90;;;;;;;2.60;76.33;99838.83;101042;1324;72014;-74
2021/12/03 14:46:10;;;;;;;3.80;1.70;;;;;;;2.49;75.81;99854.85;101426;1324;61847;-76
2021/12/03 14:48:50;;;;;;;5.50;2.10;;;;;;;2.48;76.26;99860.42;101333;1324;74266;-77
2021/12/03 14:56:21;;;;;;;4.40;1.80;;;;;;;2.42;76.83;99854.73;101457;1324;61675;-77
2021/12/03 14:59:07;;;;;;;7.90;2.10;;;;;;;2.42;76.45;99853.39;101460;1328;60805;-76
2021/12/03 15:01:47;;;;;;;4.60;2.10;;;;;;;2.41;76.61;99845.27;101404;1323;75400;-76
2021/12/03 15:04:35;;;;;;;6.80;2.10;;;;;;;2.40;76.29;99844.02;101347;1323;71482;-77
2021/12/03 15:07:07;;;;;;;7.70;1.70;;;;;;;2.39;76.48;99835.67;101581;1324;74034;-78
2021/12/03 15:09:37;;;;;;;8.50;1.70;;;;;;;2.38;76.96;99826.58;101343;1324;60745;-77
2021/12/03 15:15:44;;;;;;;7.10;2.00;;;;;;;2.37;76.66;99825.21;101443;1324;73832;-75
2021/12/03 15:23:11;;;;;;;5.00;1.50;;;;;;;2.28;76.57;99796.94;101512;1324;60401;-75
2021/12/03 15:25:49;;;;;;;8.30;1.90;;;;;;;2.36;76.74;99808.61;101510;1323;60585;-77
2021/12/03 15:31:46;;;;;;;4.60;1.50;;;;;;;2.37;76.63;99808.98;101163;1322;71804;-75
2021/12/03 15:56:24;;;;;;;7.70;2.30;;;;;;;2.35;75.46;99779.54;101350;1323;75143;-78
2021/12/03 16:04:28;;;;;;;5.40;1.50;;;;;;;2.32;75.16;99759.13;101553;1324;61838;-78
2021/12/03 16:12:40;;;;;;;5.90;1.50;;;;;;;2.29;76.10;99745.42;101651;1315;70424;-79
2021/12/03 16:15:38;;;;;;;5.10;1.70;;;;;;;2.27;76.65;99740.34;101956;1314;75402;-78
2021/12/03 16:18:34;;;;;;;5.40;2.00;;;;;;;2.26;76.33;99743.65;101820;1314;60613;-78